Time;durP1;ratioP1;P1;durP2;ratioP2;P2;SDS_P1;SDS_P2;PMS_P1;PMS_P2;Temp;Humidity;BMP_temperature;BMP_pressure;BME280_temperature;BME280_humidity;BME280_pressure;Samples;Min_cycle;Max_cycle;Signal;HPM_P1;HPM_P2
2023/04/09 00:00:37;;;;;;;10.43;7.93;;;;;;;8.69;100.00;63848.25;5013690;28;20580;-61
2023/04/09 00:03:03;;;;;;;12.03;8.40;;;;;;;8.61;100.00;63840.06;5031511;28;20221;-62
2023/04/09 00:05:28;;;;;;;11.00;7.33;;;;;;;8.61;100.00;63837.00;5031493;28;20178;-62
2023/04/09 00:07:54;;;;;;;12.93;8.80;;;;;;;8.57;100.00;63835.69;5031608;28;20205;-61
2023/04/09 00:10:20;;;;;;;10.00;7.90;;;;;;;8.52;100.00;63827.72;5031474;28;20205;-61
2023/04/09 00:12:45;;;;;;;10.57;7.77;;;;;;;8.43;100.00;63818.44;5031169;28;20253;-63
2023/04/09 00:15:11;;;;;;;10.93;8.13;;;;;;;8.24;100.00;63799.63;5031419;28;20205;-64
2023/04/09 00:17:37;;;;;;;11.97;8.07;;;;;;;8.65;100.00;63846.38;5031184;28;20337;-62
2023/04/09 00:20:03;;;;;;;8.87;7.27;;;;;;;8.58;100.00;63836.25;5031379;28;20194;-61
2023/04/09 00:22:29;;;;;;;9.83;7.30;;;;;;;8.51;100.00;63826.06;5013454;28;20178;-62
2023/04/09 00:24:56;;;;;;;9.77;7.03;;;;;;;8.53;100.00;63830.75;5031199;28;20209;-62
2023/04/09 00:27:21;;;;;;;10.43;7.17;;;;;;;8.58;100.00;63836.25;5031115;28;20512;-62
2023/04/09 00:29:47;;;;;;;10.20;7.00;;;;;;;8.63;100.00;63841.69;5031527;28;20731;-62
2023/04/09 00:32:12;;;;;;;9.93;7.60;;;;;;;8.65;100.00;63849.44;5031533;28;20183;-61
2023/04/09 00:34:38;;;;;;;8.83;6.90;;;;;;;8.60;100.00;63838.97;5031442;28;20226;-61
2023/04/09 00:37:04;;;;;;;8.60;6.63;;;;;;;8.49;100.00;63824.44;5031088;28;20210;-61
2023/04/09 00:39:29;;;;;;;8.43;6.50;;;;;;;8.24;100.00;63797.13;5038540;22;20226;-61
2023/04/09 00:41:58;;;;;;;7.80;6.57;;;;;;;8.46;100.00;63824.22;5031138;28;20196;-57
2023/04/09 00:44:24;;;;;;;9.60;7.33;;;;;;;8.44;100.00;63822.03;5031192;28;20233;-56
2023/04/09 00:46:50;;;;;;;8.23;6.97;;;;;;;8.52;100.00;63832.75;5013220;28;20214;-58
2023/04/09 00:49:16;;;;;;;9.07;7.27;;;;;;;8.58;100.00;63834.28;5030782;28;20218;-56
2023/04/09 00:51:43;;;;;;;10.47;7.30;;;;;;;8.50;100.00;63830.00;5012527;28;20191;-55
2023/04/09 00:54:09;;;;;;;7.60;6.33;;;;;;;8.55;100.00;63836.00;5031029;28;20297;-55
2023/04/09 00:56:35;;;;;;;8.50;6.47;;;;;;;8.63;100.00;63842.25;5030628;28;20296;-56
2023/04/09 00:59:01;;;;;;;8.57;6.67;;;;;;;8.51;100.00;63828.59;5030814;28;20252;-56
2023/04/09 01:01:27;;;;;;;7.63;6.83;;;;;;;8.40;100.00;63817.13;5030766;28;20649;-55
2023/04/09 01:03:53;;;;;;;7.67;6.37;;;;;;;8.35;100.00;63811.66;5030637;28;20226;-58
2023/04/09 01:06:37;;;;;;;6.73;5.93;;;;;;;8.40;100.00;63815.16;5030879;28;20182;-56
2023/04/09 01:09:07;;;;;;;9.70;6.93;;;;;;;8.48;100.00;63828.38;5030988;28;20206;-56
2023/04/09 01:12:01;;;;;;;8.00;6.73;;;;;;;8.48;100.00;63823.34;5030649;28;20288;-57
2023/04/09 01:14:32;;;;;;;9.27;7.03;;;;;;;8.37;100.00;63816.91;5030971;28;20612;-58
2023/04/09 01:17:15;;;;;;;8.37;6.23;;;;;;;8.45;100.00;63822.56;5030353;28;20209;-64
2023/04/09 01:20:00;;;;;;;8.60;6.73;;;;;;;8.41;100.00;63818.22;5030723;28;20722;-62
2023/04/09 01:22:47;;;;;;;7.83;6.03;;;;;;;8.54;100.00;63834.94;5030423;28;20197;-62
2023/04/09 01:25:45;;;;;;;7.43;6.37;;;;;;;8.34;100.00;63811.09;5030618;28;20729;-57
2023/04/09 01:28:34;;;;;;;7.87;6.30;;;;;;;8.50;100.00;63830.56;5030495;28;20214;-58
2023/04/09 01:31:08;;;;;;;10.30;6.73;;;;;;;8.27;100.00;63805.97;5030523;28;20179;-55
2023/04/09 01:33:35;;;;;;;9.20;6.40;;;;;;;8.30;100.00;63808.72;5030526;28;20215;-56
2023/04/09 01:36:03;;;;;;;10.43;7.17;;;;;;;8.30;100.00;63809.25;5012539;28;20739;-55
2023/04/09 01:38:28;;;;;;;9.70;7.03;;;;;;;8.40;100.00;63820.16;5030281;28;20214;-58
2023/04/09 01:40:56;;;;;;;9.70;7.23;;;;;;;8.44;100.00;63822.03;5012885;28;20747;-58
2023/04/09 01:43:23;;;;;;;8.40;6.80;;;;;;;8.32;100.00;63810.91;5030414;28;20675;-61
2023/04/09 01:45:49;;;;;;;10.43;7.40;;;;;;;8.51;100.00;63831.66;5030480;28;20194;-61
2023/04/09 01:48:15;;;;;;;8.60;6.67;;;;;;;8.39;100.00;63819.09;5030306;28;20210;-55
2023/04/09 01:50:42;;;;;;;9.00;7.23;;;;;;;8.35;100.00;63812.22;5012473;28;20190;-57
2023/04/09 01:53:07;;;;;;;8.03;6.07;;;;;;;8.59;100.00;63837.88;5029988;28;20299;-56
2023/04/09 01:55:39;;;;;;;7.50;6.23;;;;;;;8.56;100.00;63837.13;5030109;28;20652;-56
2023/04/09 01:58:04;;;;;;;8.60;6.77;;;;;;;8.71;100.00;63850.44;5030052;28;20288;-59
2023/04/09 02:00:44;;;;;;;7.57;5.80;;;;;;;8.48;100.00;63825.88;5029940;28;20648;-58
2023/04/09 02:03:17;;;;;;;11.00;6.63;;;;;;;8.31;100.00;63807.84;5033449;28;20711;-58
2023/04/09 02:05:54;;;;;;;8.87;6.50;;;;;;;8.42;100.00;63822.34;5033578;28;20194;-62
2023/04/09 02:08:21;;;;;;;10.73;6.93;;;;;;;8.38;100.00;63817.97;5033320;28;20213;-61
2023/04/09 02:10:54;;;;;;;7.47;6.50;;;;;;;8.38;100.00;63817.97;5033370;28;20244;-60
2023/04/09 02:13:20;;;;;;;9.17;6.33;;;;;;;8.29;100.00;63805.09;5015438;28;20214;-55
2023/04/09 02:15:47;;;;;;;7.77;6.20;;;;;;;8.39;100.00;63816.03;5015295;28;20300;-57
2023/04/09 02:18:21;;;;;;;9.37;6.57;;;;;;;8.43;100.00;63820.41;5015379;28;20218;-57
2023/04/09 02:20:46;;;;;;;7.90;6.63;;;;;;;8.42;100.00;63822.34;5033086;28;20285;-56
2023/04/09 02:23:11;;;;;;;8.73;6.90;;;;;;;8.29;100.00;63808.16;5033134;28;20300;-56
2023/04/09 02:25:37;;;;;;;9.70;7.00;;;;;;;8.33;100.00;63807.50;5032930;28;20198;-56
2023/04/09 02:28:02;;;;;;;7.43;6.43;;;;;;;8.40;100.00;63819.63;5032816;28;20572;-57
2023/04/09 02:30:28;;;;;;;7.97;5.90;;;;;;;8.37;100.00;63816.34;5032961;28;20190;-62
2023/04/09 02:32:54;;;;;;;7.80;6.30;;;;;;;8.21;100.00;63799.41;5032728;28;20214;-62
2023/04/09 02:35:19;;;;;;;10.90;7.40;;;;;;;8.12;100.00;63784.56;5032756;28;20201;-61
2023/04/09 02:37:45;;;;;;;10.67;7.03;;;;;;;8.11;100.00;63785.44;5014794;28;20222;-61
2023/04/09 02:40:10;;;;;;;8.80;6.83;;;;;;;8.09;100.00;63786.31;5032948;28;20273;-62
2023/04/09 02:42:36;;;;;;;9.47;7.20;;;;;;;8.16;100.00;63793.41;5032632;28;20192;-56
2023/04/09 02:45:02;;;;;;;8.60;6.97;;;;;;;7.99;100.00;63772.88;5014828;28;20624;-62
2023/04/09 02:47:29;;;;;;;10.53;7.53;;;;;;;8.12;100.00;63786.53;5032685;28;20194;-62
2023/04/09 02:49:54;;;;;;;12.20;7.27;;;;;;;8.19;100.00;63796.69;5014868;28;20661;-58
2023/04/09 02:52:23;;;;;;;10.23;7.93;;;;;;;8.24;100.00;63802.69;5032661;28;20204;-63
2023/04/09 02:54:49;;;;;;;12.63;7.87;;;;;;;8.32;100.00;63811.44;5032327;28;20218;-56
2023/04/09 02:57:14;;;;;;;12.07;8.33;;;;;;;8.30;100.00;63806.22;5032413;28;20218;-57
2023/04/09 02:59:39;;;;;;;11.43;8.53;;;;;;;8.36;100.00;63818.31;5032143;28;20241;-56
2023/04/09 03:02:05;;;;;;;12.07;8.30;;;;;;;8.45;100.00;63823.13;5032378;28;20196;-56
2023/04/09 03:04:30;;;;;;;11.33;8.97;;;;;;;8.33;100.00;63812.53;5014584;28;20225;-56
2023/04/09 03:06:56;;;;;;;11.30;8.57;;;;;;;8.26;100.00;63804.88;5032344;28;20182;-57
2023/04/09 03:09:21;;;;;;;11.70;8.80;;;;;;;8.31;100.00;63809.81;5032408;28;20308;-56
2023/04/09 03:11:47;;;;;;;11.77;8.80;;;;;;;8.41;100.00;63818.75;5032218;28;20201;-56
2023/04/09 03:14:12;;;;;;;10.93;8.80;;;;;;;8.32;100.00;63808.41;5031523;28;20265;-61
2023/04/09 03:16:37;;;;;;;13.20;9.00;;;;;;;8.28;100.00;63807.06;5032096;28;20213;-62
2023/04/09 03:19:03;;;;;;;12.23;8.53;;;;;;;8.32;100.00;63808.91;5032200;28;20228;-62
2023/04/09 03:21:28;;;;;;;11.27;8.63;;;;;;;8.34;100.00;63811.09;5032014;28;20221;-62
2023/04/09 03:23:54;;;;;;;11.60;8.67;;;;;;;8.29;100.00;63810.13;5032277;28;20250;-60
2023/04/09 03:26:19;;;;;;;13.77;9.57;;;;;;;8.31;100.00;63807.84;5032032;28;20190;-61
2023/04/09 03:28:44;;;;;;;10.60;8.37;;;;;;;8.28;100.00;63802.03;5032079;28;20218;-61
2023/04/09 03:31:10;;;;;;;12.83;9.23;;;;;;;8.33;100.00;63811.97;5031953;28;20198;-59
2023/04/09 03:33:35;;;;;;;13.47;10.03;;;;;;;8.30;100.00;63808.72;5031953;28;20304;-59
2023/04/09 03:36:01;;;;;;;11.17;8.93;;;;;;;8.36;100.00;63815.28;5031778;28;20198;-59
2023/04/09 03:38:26;;;;;;;12.07;9.20;;;;;;;8.29;100.00;63808.16;5031906;28;20210;-58
2023/04/09 03:40:51;;;;;;;13.50;9.97;;;;;;;8.32;100.00;63811.44;5032064;28;20222;-58
2023/04/09 03:43:17;;;;;;;11.90;9.77;;;;;;;8.37;99.69;63813.84;5031620;28;20563;-63
2023/04/09 03:45:42;;;;;;;13.63;10.03;;;;;;;8.45;99.07;63823.13;5014056;28;20281;-58
2023/04/09 03:48:08;;;;;;;13.33;9.40;;;;;;;8.23;100.00;63798.53;5031866;28;20305;-60
2023/04/09 03:50:40;;;;;;;11.10;9.33;;;;;;;8.25;100.00;63801.28;5031689;28;20718;-59
2023/04/09 03:53:06;;;;;;;11.90;9.20;;;;;;;8.30;100.00;63806.22;5031620;28;20218;-61
2023/04/09 03:55:32;;;;;;;12.83;9.57;;;;;;;8.28;100.00;63804.56;5031650;28;20257;-60
2023/04/09 03:57:57;;;;;;;12.07;9.47;;;;;;;8.24;99.87;63800.16;5031581;28;20638;-61
2023/04/09 04:00:22;;;;;;;13.07;9.90;;;;;;;8.29;99.58;63805.66;5031688;28;20201;-64
2023/04/09 04:02:48;;;;;;;12.30;9.80;;;;;;;8.30;98.75;63806.75;5031472;28;20569;-63
2023/04/09 04:05:13;;;;;;;13.97;10.43;;;;;;;8.16;99.41;63793.41;5031779;28;20190;-63
2023/04/09 04:07:38;;;;;;;13.40;10.07;;;;;;;8.18;100.00;63796.13;5031464;28;20182;-60
2023/04/09 04:10:05;;;;;;;11.50;10.03;;;;;;;8.11;99.91;63788.50;5013568;28;20580;-60
2023/04/09 04:12:31;;;;;;;15.10;9.63;;;;;;;8.10;99.93;63784.88;5031311;28;20291;-62
2023/04/09 04:14:57;;;;;;;11.07;9.00;;;;;;;8.04;100.00;63780.84;5013743;28;20680;-62
2023/04/09 04:17:22;;;;;;;13.10;10.30;;;;;;;8.13;100.00;63790.69;5031440;28;20304;-61
2023/04/09 04:19:48;;;;;;;11.93;9.43;;;;;;;8.51;98.92;63831.09;5013487;28;20684;-56
2023/04/09 04:22:14;;;;;;;13.47;9.70;;;;;;;8.48;98.37;63827.81;5013647;28;20198;-57
2023/04/09 04:24:39;;;;;;;14.13;9.50;;;;;;;8.35;99.91;63811.66;5031299;28;20231;-55
2023/04/09 04:27:05;;;;;;;15.47;10.93;;;;;;;8.30;99.59;63809.25;5031339;28;20186;-56
2023/04/09 04:29:31;;;;;;;14.87;10.27;;;;;;;8.42;98.69;63821.81;5030965;28;20661;-56
2023/04/09 04:31:56;;;;;;;13.77;10.83;;;;;;;8.34;98.42;63808.59;5031219;28;20218;-62
2023/04/09 04:34:22;;;;;;;14.60;10.13;;;;;;;8.36;98.42;63815.28;5030976;28;20226;-61
2023/04/09 04:36:47;;;;;;;15.10;10.93;;;;;;;8.39;98.51;63816.56;5031027;28;20599;-62
2023/04/09 04:39:13;;;;;;;16.27;10.20;;;;;;;8.58;98.38;63836.25;5031249;28;20736;-62
2023/04/09 04:41:38;;;;;;;13.97;10.07;;;;;;;8.74;97.13;63851.75;5031113;28;20186;-61
2023/04/09 04:44:03;;;;;;;15.43;10.20;;;;;;;8.62;97.25;63841.16;5031019;28;20588;-56
2023/04/09 04:46:29;;;;;;;13.30;9.90;;;;;;;8.69;97.12;63848.25;5030819;28;20186;-56
2023/04/09 04:48:54;;;;;;;15.00;10.33;;;;;;;8.67;97.99;63846.59;5030777;28;20214;-57
2023/04/09 04:51:26;;;;;;;15.90;10.90;;;;;;;8.54;99.67;63834.38;5030909;28;20183;-57
2023/04/09 04:53:52;;;;;;;16.80;10.33;;;;;;;8.69;98.90;63848.25;5030636;28;20233;-56
2023/04/09 04:56:18;;;;;;;14.57;10.87;;;;;;;8.74;99.22;63856.22;5013149;28;20210;-55
2023/04/09 04:58:43;;;;;;;15.00;10.63;;;;;;;8.77;98.38;63857.53;5031014;28;20213;-61
2023/04/09 05:01:09;;;;;;;15.43;10.97;;;;;;;8.72;99.81;63851.53;5030807;28;20643;-57
2023/04/09 05:03:34;;;;;;;16.03;10.80;;;;;;;8.87;98.33;63865.41;5030853;28;20636;-57
2023/04/09 05:06:00;;;;;;;19.10;11.73;;;;;;;8.85;99.23;63868.22;5030745;28;20190;-56
2023/04/09 05:08:25;;;;;;;17.90;11.43;;;;;;;8.94;98.09;63875.56;5030794;28;20293;-58
2023/04/09 05:10:50;;;;;;;16.00;11.00;;;;;;;8.81;98.92;63863.88;5030842;28;20194;-56
2023/04/09 05:13:16;;;;;;;23.40;11.70;;;;;;;8.83;98.84;63866.59;5030670;28;20313;-56
2023/04/09 05:15:42;;;;;;;18.33;13.00;;;;;;;8.68;100.00;63847.72;5030480;28;20200;-59
2023/04/09 05:18:07;;;;;;;16.37;12.10;;;;;;;8.74;100.00;63856.22;5030447;28;20213;-61
2023/04/09 05:20:33;;;;;;;18.60;11.43;;;;;;;8.72;100.00;63851.53;5030388;28;20193;-61
2023/04/09 05:22:59;;;;;;;17.70;12.03;;;;;;;8.71;100.00;63850.44;5030299;28;20221;-60
2023/04/09 05:25:24;;;;;;;19.87;12.77;;;;;;;8.69;100.00;63848.25;5030380;28;20182;-57
2023/04/09 05:27:50;;;;;;;20.13;11.40;;;;;;;8.81;100.00;63861.91;5030311;28;20206;-62
2023/04/09 05:30:16;;;;;;;19.67;12.27;;;;;;;8.80;100.00;63860.28;5030370;28;20244;-61
2023/04/09 05:32:41;;;;;;;17.03;11.00;;;;;;;8.80;100.00;63863.34;5030309;28;20182;-55
2023/04/09 05:35:07;;;;;;;20.00;12.17;;;;;;;8.86;100.00;63872.41;5030515;28;20300;-59
2023/04/09 05:37:32;;;;;;;19.33;12.07;;;;;;;8.79;100.00;63859.72;5032757;28;20744;-58
2023/04/09 05:39:58;;;;;;;17.80;11.43;;;;;;;8.63;100.00;63844.19;5034095;28;20201;-58
2023/04/09 05:42:23;;;;;;;17.33;11.43;;;;;;;8.79;100.00;63861.69;5033939;28;20197;-58
2023/04/09 05:44:49;;;;;;;18.37;11.03;;;;;;;8.81;100.00;63866.38;5034014;28;20224;-59
2023/04/09 05:47:14;;;;;;;22.43;11.90;;;;;;;8.72;100.00;63851.53;5033605;28;20684;-59
2023/04/09 05:49:40;;;;;;;16.90;11.53;;;;;;;8.74;100.00;63856.22;5033776;28;20238;-58
2023/04/09 05:52:05;;;;;;;17.73;11.67;;;;;;;8.69;100.00;63848.25;5033528;28;20244;-58
2023/04/09 05:54:31;;;;;;;19.30;12.00;;;;;;;8.79;100.00;63862.22;5033579;28;20218;-58
2023/04/09 05:56:56;;;;;;;17.87;11.90;;;;;;;8.85;100.00;63865.72;5033565;28;20264;-58
2023/04/09 05:59:21;;;;;;;17.90;11.33;;;;;;;8.84;100.00;63867.72;5033238;28;20643;-58
2023/04/09 06:01:47;;;;;;;19.00;11.37;;;;;;;8.89;100.00;63870.09;5033399;28;20190;-57
2023/04/09 06:04:12;;;;;;;16.50;12.03;;;;;;;9.02;100.00;63881.78;5033647;28;20758;-58
2023/04/09 06:06:38;;;;;;;17.97;11.53;;;;;;;9.17;99.74;63903.75;5033239;28;20187;-59
2023/04/09 06:09:04;;;;;;;15.23;10.67;;;;;;;9.11;97.46;63894.16;5033343;28;20210;-58
2023/04/09 06:11:30;;;;;;;17.07;11.13;;;;;;;9.20;98.47;63903.97;5033300;28;20645;-59
2023/04/09 06:13:55;;;;;;;25.73;12.57;;;;;;;9.35;99.29;63920.38;5033427;28;20206;-58
2023/04/09 06:16:21;;;;;;;20.13;11.80;;;;;;;9.43;97.53;63929.13;5033018;28;20621;-59
2023/04/09 06:18:48;;;;;;;18.97;12.37;;;;;;;9.48;95.95;63937.09;5033048;28;20214;-62
2023/04/09 06:21:14;;;;;;;17.17;11.77;;;;;;;9.28;94.41;63913.28;5033181;28;20186;-59
2023/04/09 06:23:39;;;;;;;16.07;11.43;;;;;;;9.33;94.09;63918.72;5032810;28;20734;-58
2023/04/09 06:26:05;;;;;;;19.27;12.37;;;;;;;9.48;94.11;63934.59;5033129;28;20194;-59
2023/04/09 06:28:31;;;;;;;18.87;11.83;;;;;;;9.27;95.64;63909.66;5033119;28;20218;-59
2023/04/09 06:30:58;;;;;;;15.30;10.63;;;;;;;9.36;93.00;63921.47;5032878;28;20198;-58
2023/04/09 06:33:23;;;;;;;14.97;10.93;;;;;;;9.40;93.05;63925.28;5032926;28;20292;-56
2023/04/09 06:35:49;;;;;;;24.70;15.57;;;;;;;9.36;92.93;63921.47;5032858;28;20731;-57
2023/04/09 06:38:15;;;;;;;20.13;10.83;;;;;;;9.44;90.82;63930.22;5032814;28;20222;-58
2023/04/09 06:40:41;;;;;;;16.27;9.97;;;;;;;9.61;91.02;63943.78;5015091;28;20186;-57
2023/04/09 06:43:06;;;;;;;14.00;10.43;;;;;;;9.67;88.82;63955.38;5014948;28;20291;-56
2023/04/09 06:45:32;;;;;;;16.13;11.33;;;;;;;9.64;88.11;63954.03;5032806;28;20189;-57
2023/04/09 06:47:59;;;;;;;21.13;12.07;;;;;;;9.82;95.68;63973.72;5013587;28;20230;-56
2023/04/09 06:50:24;;;;;;;13.30;9.20;;;;;;;9.71;86.68;63959.75;5032523;28;20671;-57
2023/04/09 06:52:50;;;;;;;16.23;10.57;;;;;;;9.87;88.58;63976.69;5032781;28;20210;-59
2023/04/09 06:55:16;;;;;;;13.60;10.23;;;;;;;9.87;88.09;63979.75;5032724;28;20186;-58
2023/04/09 06:57:41;;;;;;;13.37;9.13;;;;;;;9.88;87.90;63977.78;5014566;28;20604;-60
2023/04/09 07:00:08;;;;;;;14.23;8.37;;;;;;;9.83;87.14;63972.88;5032348;28;20194;-59
2023/04/09 07:02:34;;;;;;;13.93;9.53;;;;;;;9.94;86.99;63984.88;5032174;28;20206;-58
2023/04/09 07:05:00;;;;;;;15.80;8.47;;;;;;;9.91;87.92;63981.06;5039769;22;20232;-59
2023/04/09 07:07:25;;;;;;;11.70;9.30;;;;;;;9.91;88.20;63979.09;5032409;28;20178;-58
2023/04/09 07:09:52;;;;;;;15.33;10.30;;;;;;;9.87;90.29;63974.72;5032621;28;20202;-62
2023/04/09 07:12:33;;;;;;;13.40;9.47;;;;;;;9.75;86.57;63963.56;5032339;28;20666;-61
2023/04/09 07:15:00;;;;;;;13.20;9.77;;;;;;;9.69;90.84;63957.56;5032686;28;20209;-61
2023/04/09 07:17:25;;;;;;;13.10;8.37;;;;;;;9.74;88.38;63960.50;5032239;28;20210;-56
2023/04/09 07:19:50;;;;;;;9.90;7.90;;;;;;;9.70;86.11;63958.09;5032272;28;20244;-57
2023/04/09 07:22:24;;;;;;;15.03;9.40;;;;;;;9.83;87.74;63972.88;5032296;28;20186;-59
2023/04/09 07:24:52;;;;;;;14.33;9.33;;;;;;;9.85;88.50;63977.56;5032366;28;20683;-57
2023/04/09 07:27:26;;;;;;;12.67;8.17;;;;;;;9.83;85.37;63975.38;5032196;28;20193;-57
2023/04/09 07:29:57;;;;;;;12.93;8.73;;;;;;;9.67;85.90;63955.38;5031760;28;20214;-59
2023/04/09 07:32:23;;;;;;;10.93;7.87;;;;;;;9.58;85.37;63943.00;5032031;28;20189;-59
2023/04/09 07:34:52;;;;;;;11.70;8.40;;;;;;;9.67;87.24;63952.31;5032507;28;20214;-59
2023/04/09 07:37:18;;;;;;;12.60;9.20;;;;;;;9.85;87.26;63975.06;5014126;28;20210;-58
2023/04/09 07:39:43;;;;;;;11.17;7.80;;;;;;;9.89;83.10;63979.44;5032014;28;20213;-61
2023/04/09 07:42:09;;;;;;;13.33;8.40;;;;;;;9.87;83.98;63977.25;5014044;28;20185;-56
2023/04/09 07:44:35;;;;;;;10.57;8.10;;;;;;;9.94;84.97;63984.34;5031924;28;20206;-56
2023/04/09 07:47:01;;;;;;;14.37;8.80;;;;;;;9.99;83.06;63990.38;5031600;28;20632;-56
2023/04/09 07:49:27;;;;;;;17.37;9.50;;;;;;;10.10;86.52;63999.34;5031550;28;20206;-56
2023/04/09 07:51:52;;;;;;;15.17;8.43;;;;;;;10.12;84.02;64004.06;5031800;28;20190;-56
2023/04/09 07:54:19;;;;;;;12.30;8.00;;;;;;;9.93;78.67;63983.25;5031950;28;20680;-55
2023/04/09 07:56:45;;;;;;;13.97;8.10;;;;;;;9.96;81.30;63989.59;5031547;28;20218;-57
2023/04/09 07:59:10;;;;;;;12.90;9.07;;;;;;;10.08;81.21;63999.66;5031555;28;20210;-61
2023/04/09 08:01:36;;;;;;;12.33;7.90;;;;;;;10.03;81.08;63992.22;5031792;28;20585;-62
2023/04/09 08:04:02;;;;;;;10.07;7.97;;;;;;;9.92;79.88;63982.69;5031526;28;20248;-62
2023/04/09 08:06:28;;;;;;;13.70;8.87;;;;;;;9.83;82.59;63974.84;5031483;28;20593;-61
2023/04/09 08:08:53;;;;;;;12.37;9.27;;;;;;;10.00;82.69;63991.47;5031634;28;20215;-61
2023/04/09 08:11:24;;;;;;;12.60;8.33;;;;;;;9.99;82.24;63987.84;5031456;28;20572;-63
2023/04/09 08:13:50;;;;;;;11.00;8.30;;;;;;;9.92;82.83;63982.69;5031472;28;20209;-57
2023/04/09 08:16:16;;;;;;;12.63;9.30;;;;;;;9.97;81.73;63985.66;5031199;28;20724;-57
2023/04/09 08:18:41;;;;;;;14.27;9.73;;;;;;;10.04;83.06;63995.84;5031542;28;20285;-57
2023/04/09 08:21:07;;;;;;;11.33;8.37;;;;;;;9.76;82.92;63967.16;5031533;28;20182;-56
2023/04/09 08:23:32;;;;;;;12.23;9.40;;;;;;;9.85;82.93;63975.06;5013713;28;20249;-56
2023/04/09 08:25:57;;;;;;;14.67;10.07;;;;;;;9.84;83.98;63975.91;5031248;28;20267;-59
2023/04/09 08:28:23;;;;;;;12.43;9.77;;;;;;;9.89;84.64;63976.38;5013669;28;20226;-63
2023/04/09 08:30:48;;;;;;;10.97;8.20;;;;;;;9.78;83.63;63967.38;5013510;28;20546;-62
2023/04/09 08:33:14;;;;;;;13.73;9.70;;;;;;;9.75;84.71;63964.13;5031269;28;20653;-62
2023/04/09 08:35:40;;;;;;;17.87;10.33;;;;;;;9.71;85.83;63959.75;5031225;28;20589;-62
2023/04/09 08:38:05;;;;;;;13.83;10.70;;;;;;;9.62;84.89;63952.41;5030975;28;20214;-61
2023/04/09 08:40:34;;;;;;;15.80;9.80;;;;;;;9.55;86.41;63944.22;5031228;28;20206;-56
2023/04/09 08:43:04;;;;;;;14.00;10.07;;;;;;;9.80;85.52;63971.53;5031084;28;20222;-58
2023/04/09 08:45:30;;;;;;;15.40;10.57;;;;;;;9.84;84.90;63973.41;5031117;28;20221;-62
2023/04/09 08:47:58;;;;;;;16.00;9.50;;;;;;;9.81;83.96;63970.69;5031046;28;20229;-60
2023/04/09 08:50:26;;;;;;;16.00;10.10;;;;;;;9.86;85.80;63975.59;5030991;28;20198;-65
2023/04/09 08:52:53;;;;;;;15.60;9.43;;;;;;;9.79;85.50;63967.94;5013142;28;20209;-63
2023/04/09 08:55:18;;;;;;;14.70;9.57;;;;;;;9.77;85.56;63963.25;5013476;28;20259;-57
2023/04/09 08:57:44;;;;;;;16.27;10.27;;;;;;;9.80;86.30;63969.03;5030618;28;20202;-56
2023/04/09 09:00:10;;;;;;;14.37;9.23;;;;;;;9.79;84.20;63970.47;5030747;28;20197;-57
2023/04/09 09:02:35;;;;;;;16.43;10.27;;;;;;;9.80;85.27;63969.03;5030612;28;20182;-57
2023/04/09 09:05:01;;;;;;;15.30;9.37;;;;;;;9.84;83.65;63973.41;5031049;28;20225;-57
2023/04/09 09:07:30;;;;;;;15.83;10.00;;;;;;;9.78;84.77;63964.31;5013039;28;20715;-59
2023/04/09 09:09:58;;;;;;;12.83;9.53;;;;;;;9.96;83.27;63986.53;5030589;28;20222;-59
2023/04/09 09:12:30;;;;;;;13.93;9.70;;;;;;;9.98;82.11;63994.31;5015672;28;20187;-58
2023/04/09 09:14:56;;;;;;;15.13;10.00;;;;;;;9.95;83.13;63982.94;5034339;28;20198;-58
2023/04/09 09:17:21;;;;;;;13.93;9.07;;;;;;;10.06;82.75;63997.47;5034066;28;20289;-59
2023/04/09 09:19:47;;;;;;;10.60;7.90;;;;;;;9.97;81.90;63988.19;5033998;28;20222;-57
2023/04/09 09:22:13;;;;;;;11.17;8.30;;;;;;;9.82;81.14;63971.22;5034130;28;20514;-62
2023/04/09 09:24:50;;;;;;;15.33;8.57;;;;;;;9.91;81.85;63981.06;5016391;28;20214;-61
2023/04/09 09:27:39;;;;;;;12.53;8.97;;;;;;;9.95;83.00;63987.97;5034488;28;20269;-63
2023/04/09 09:30:06;;;;;;;13.90;8.33;;;;;;;9.84;81.86;63971.44;5033874;28;20241;-61
2023/04/09 09:32:32;;;;;;;12.27;7.57;;;;;;;10.05;80.43;63998.91;5033977;28;20194;-60
2023/04/09 09:35:05;;;;;;;10.83;7.63;;;;;;;9.87;80.73;63977.25;5034055;28;20202;-60
2023/04/09 09:37:32;;;;;;;10.77;8.00;;;;;;;10.30;80.30;64023.22;5034059;28;20214;-62
2023/04/09 09:39:58;;;;;;;13.40;8.20;;;;;;;10.31;79.47;64024.31;5034092;28;20283;-56
2023/04/09 09:42:25;;;;;;;10.43;8.10;;;;;;;10.61;80.83;64055.16;5033973;28;20193;-57
2023/04/09 09:44:52;;;;;;;9.97;7.63;;;;;;;10.73;78.73;64067.75;5033711;28;20217;-56
2023/04/09 09:47:21;;;;;;;11.27;8.43;;;;;;;10.94;77.87;64093.25;5033952;28;20194;-56
2023/04/09 09:49:50;;;;;;;9.13;6.77;;;;;;;11.48;71.91;64149.88;5034093;28;20249;-57
2023/04/09 09:52:22;;;;;;;9.47;7.43;;;;;;;11.45;74.05;64144.06;5033692;28;20272;-57
2023/04/09 09:54:53;;;;;;;9.03;6.73;;;;;;;11.67;70.20;64173.25;5016123;28;20225;-55
2023/04/09 09:57:22;;;;;;;9.63;6.67;;;;;;;11.56;71.21;64161.16;5033576;28;20214;-55
2023/04/09 10:00:01;;;;;;;8.93;6.73;;;;;;;11.65;73.74;64168.53;5033751;28;20721;-59
2023/04/09 10:02:29;;;;;;;9.93;7.27;;;;;;;12.25;70.64;64233.19;5033613;28;20220;-58
2023/04/09 10:04:59;;;;;;;9.67;7.43;;;;;;;12.43;69.77;64252.94;5033598;28;20186;-61
2023/04/09 10:07:25;;;;;;;12.83;7.43;;;;;;;12.95;69.47;64309.44;5033586;28;20178;-62
2023/04/09 10:09:55;;;;;;;8.87;6.97;;;;;;;13.30;63.96;64350.94;5040864;22;20711;-59
2023/04/09 10:12:23;;;;;;;7.60;6.53;;;;;;;13.25;64.86;64344.91;5033363;28;20218;-58
2023/04/09 10:14:51;;;;;;;7.10;6.27;;;;;;;13.72;62.55;64393.94;5033836;28;20202;-60
2023/04/09 10:17:18;;;;;;;8.53;7.17;;;;;;;14.27;63.92;64453.81;5033508;28;20229;-58
2023/04/09 10:19:50;;;;;;;9.40;6.67;;;;;;;13.82;60.48;64402.41;5033667;28;20225;-60
2023/04/09 10:22:20;;;;;;;8.73;6.43;;;;;;;14.03;58.60;64428.00;5033371;28;20185;-59
2023/04/09 10:24:46;;;;;;;8.00;6.00;;;;;;;14.29;57.10;64459.13;5033065;28;20214;-59
2023/04/09 10:27:14;;;;;;;6.00;5.40;;;;;;;13.44;59.43;64363.75;5033036;28;20247;-58
2023/04/09 10:29:48;;;;;;;8.70;6.43;;;;;;;13.02;61.15;64320.19;5033125;28;20707;-57
2023/04/09 10:32:22;;;;;;;7.40;6.27;;;;;;;12.91;63.33;64305.56;5033068;28;20181;-56
2023/04/09 10:34:49;;;;;;;7.30;6.33;;;;;;;13.18;62.95;64337.22;5033008;28;20237;-57
2023/04/09 10:37:25;;;;;;;9.43;6.83;;;;;;;13.15;61.14;64334.47;5015052;28;20293;-55
2023/04/09 10:39:51;;;;;;;7.13;5.83;;;;;;;13.33;59.51;64354.22;5033275;28;20703;-57
2023/04/09 10:42:26;;;;;;;6.03;5.43;;;;;;;13.25;60.36;64345.44;5033036;28;20577;-62
2023/04/09 10:45:12;;;;;;;9.17;6.13;;;;;;;12.87;61.20;64301.19;5033013;28;20294;-56
2023/04/09 10:47:41;;;;;;;11.10;7.33;;;;;;;12.60;62.10;64269.59;5014810;28;20190;-61
2023/04/09 10:50:26;;;;;;;9.97;6.80;;;;;;;12.46;64.00;64258.75;5032679;28;20244;-63
2023/04/09 10:52:55;;;;;;;9.83;6.77;;;;;;;12.55;65.32;64263.56;5032565;28;20225;-62
2023/04/09 10:55:37;;;;;;;10.03;6.43;;;;;;;12.44;64.84;64256.56;5032643;28;20203;-62
2023/04/09 10:58:10;;;;;;;8.27;6.60;;;;;;;12.46;65.40;64256.22;5032422;28;20676;-62
2023/04/09 11:00:38;;;;;;;8.30;7.03;;;;;;;12.66;65.89;64280.69;5014869;28;20264;-62
2023/04/09 11:03:35;;;;;;;10.87;7.57;;;;;;;12.68;65.93;64283.41;5032522;28;20292;-59
2023/04/09 11:06:04;;;;;;;9.27;7.37;;;;;;;12.71;65.16;64283.09;5014900;28;20186;-59
2023/04/09 11:08:32;;;;;;;8.37;7.13;;;;;;;12.68;64.79;64282.88;5015047;28;20240;-59
2023/04/09 11:10:59;;;;;;;8.13;6.60;;;;;;;12.74;64.52;64286.38;5032355;28;20270;-59
2023/04/09 11:13:25;;;;;;;7.70;5.60;;;;;;;12.66;64.92;64278.69;5032852;28;20233;-58
2023/04/09 11:15:51;;;;;;;8.80;7.10;;;;;;;12.44;67.00;64256.56;5032370;28;20178;-57
2023/04/09 11:18:22;;;;;;;8.07;6.70;;;;;;;12.52;67.78;64262.81;5014486;28;20222;-57
2023/04/09 11:20:48;;;;;;;8.80;6.70;;;;;;;12.50;65.49;64261.16;5032492;28;20206;-56
2023/04/09 11:23:15;;;;;;;8.20;6.50;;;;;;;12.67;66.13;64279.25;5014472;28;20260;-56
2023/04/09 11:25:41;;;;;;;8.20;6.17;;;;;;;12.60;66.39;64274.13;5032256;28;20191;-59
2023/04/09 11:28:07;;;;;;;7.57;6.70;;;;;;;12.72;62.84;64284.75;5032030;28;20218;-59
2023/04/09 11:30:33;;;;;;;6.27;5.60;;;;;;;12.60;59.93;64276.63;5032234;28;20186;-56